Airfield :
LOGIN :

Register | Disclaimer

   EN    FR    IT 

 










Legend :    VFR   Marginal VFR   IFR   Intensive IFR   Very Intensive IFR
Visi :
Ceiling :
>= 8 km
>= 3000ft
5 to 8 km
1000 to 3000 ft
1500m to 5 km
500 to 1000 ft
800 to 1500m
200 to 500 ft
< 800m
< 200 ft
Symbols :   Thunderstorms  Fog  Heavy snow  Heavy precipitations  Wind > 20 kt
SIGMETs :     Misc.  Thunderstorms  Icing  Turbulence  Mountain Waves  Volcanic Ashes







- Airport Elevation : 499 ft
- IATA code : TLS
- Download approach charts


LFBO - Toulouse / Blagnac

CURRENT METAR :
  • 272300Z AUTO VRB03KT CAVOK 16/15 Q1015 NOSIG

EXPIRED METARs :
  • 272230Z AUTO VRB03KT CAVOK 16/15 Q1015 NOSIG
  • 272200Z AUTO 13004KT 110V170 9999 -RA FEW011 BKN100 OVC110 17/16 Q1015 NOSIG
  • 272130Z AUTO 14004KT 9999 -RA ///TCU 17/16 Q1016 BECMG NSC
  • 272100Z AUTO 16006KT 130V190 9999 RA ///CB 17/16 Q1016 BECMG NSW NSC
  • 272030Z AUTO 17006KT 8000 -RA ///CB 16/15 Q1016 BECMG NSC

TAF TAF LFBO
Valid from the 28 at 00:00 until the 29 at 06:00 UTC


272300Z 2800/2906 VRB03KT CAVOK
PROB30
TEMPO 2800/2804 BKN010
BECMG 2804/2806 BKN030
TEMPO 2804/2906 4000 RA BKN005
PROB30
TEMPO 2804/2821 VRB15G30KT 2000 TSRA BKN030CB
BECMG 2821/2823 28008KT
ATIS : +33 5 62 74 66 36
No reported NOTAMs for that airfield.
1 SIGMET reported for the Bordeaux FIR (LFBB) :
 
Embedded thunderstorms and hail
LFBB SIGMET 9 VALID 272200/280100 LFPW
LFBB BORDEAUX FIR/UIR EMBD TSGR OBS WI N4515 E00115 - N4345 E00030 - N4400 W00030 - N4530 E00030 - N4515 E00115 TOP FL360 MOV NW 20KT NC=



MET'MAP, your aeronautical weather chart ! - Copyright ORBIFLY December 2007 - Disclaimer

ORBIFLY MET'MAP TEAM :

Programming & Development : Alexandra Zaïnal
Concept & Development : Baudouin d'Aumeries
Co-Development & Prog : Marc-Olivier Méhu
Technical & hardware support : Manuel Goepfert

Contact : metmap@orbifly.com




SOURCES & CREDITS :

   NOAA